Time;durP1;ratioP1;P1;durP2;ratioP2;P2;SDS_P1;SDS_P2;PMS_P1;PMS_P2;Temp;Humidity;BMP_temperature;BMP_pressure;BME280_temperature;BME280_humidity;BME280_pressure;Samples;Min_cycle;Max_cycle;Signal;HPM_P1;HPM_P2
2022/08/04 00:01:52;;;;;;;8.40;7.60;;;;;;;21.41;55.09;100617.75;110230;1259;23628;-79
2022/08/04 00:04:36;;;;;;;10.00;8.30;;;;;;;21.39;55.08;100615.84;110108;1259;22051;-79
2022/08/04 00:07:15;;;;;;;8.60;7.80;;;;;;;21.34;55.22;100616.20;109978;1257;21988;-79
2022/08/04 00:09:58;;;;;;;15.80;8.70;;;;;;;21.31;55.54;100620.29;110168;1257;21976;-79
2022/08/04 00:12:32;;;;;;;9.70;8.80;;;;;;;21.27;55.49;100617.94;109328;1261;23712;-78
2022/08/04 00:15:11;;;;;;;10.30;8.50;;;;;;;21.26;55.43;100617.80;109336;1261;21986;-78
2022/08/04 00:17:53;;;;;;;12.10;8.70;;;;;;;21.25;55.48;100619.66;109680;1262;21975;-78
2022/08/04 00:20:28;;;;;;;12.30;8.60;;;;;;;21.24;55.38;100619.42;109234;1261;23586;-80
2022/08/04 00:22:59;;;;;;;10.40;8.20;;;;;;;21.22;55.49;100618.88;109483;1261;22930;-79
2022/08/04 00:25:29;;;;;;;10.00;8.20;;;;;;;21.20;55.65;100619.15;109330;1261;21946;-79
2022/08/04 00:28:00;;;;;;;12.50;10.20;;;;;;;21.17;55.69;100619.73;109267;1261;22099;-78
2022/08/04 00:30:32;;;;;;;10.10;8.80;;;;;;;21.10;55.73;100618.22;109518;1257;21971;-79
2022/08/04 00:33:02;;;;;;;9.80;8.90;;;;;;;21.07;56.32;100616.65;109796;1257;23121;-78
2022/08/04 00:35:32;;;;;;;10.30;8.90;;;;;;;21.08;56.59;100621.61;110224;1257;22438;-78
2022/08/04 00:38:02;;;;;;;8.30;7.50;;;;;;;21.08;56.73;100623.54;110235;1253;22033;-78
2022/08/04 00:40:52;;;;;;;9.60;8.50;;;;;;;21.10;56.92;100622.77;110582;1253;23096;-78
2022/08/04 00:43:34;;;;;;;9.20;8.20;;;;;;;21.06;56.99;100620.31;110500;1253;23607;-78
2022/08/04 00:46:40;;;;;;;10.60;9.00;;;;;;;21.03;57.13;100615.52;110642;1253;23636;-78
2022/08/04 00:49:52;;;;;;;10.90;9.80;;;;;;;20.97;57.11;100617.73;110663;1253;23709;-78
2022/08/04 00:52:45;;;;;;;12.30;9.30;;;;;;;20.83;57.23;100615.61;110516;1253;23029;-78
2022/08/04 00:55:32;;;;;;;10.00;8.90;;;;;;;20.74;57.31;100615.20;110470;1253;21977;-78
2022/08/04 00:58:17;;;;;;;12.00;9.30;;;;;;;20.68;57.45;100613.21;110216;1256;22092;-79
2022/08/04 01:00:59;;;;;;;13.10;8.50;;;;;;;20.67;57.57;100616.41;110318;1257;22249;-79
2022/08/04 01:04:07;;;;;;;12.30;9.00;;;;;;;20.68;57.81;100619.66;109866;1261;21981;-79
2022/08/04 01:06:43;;;;;;;10.00;9.10;;;;;;;20.69;57.97;100621.14;109519;1263;23032;-79
2022/08/04 01:09:47;;;;;;;10.00;9.10;;;;;;;20.71;58.04;100624.95;109516;1265;21985;-78
2022/08/04 01:12:36;;;;;;;10.10;9.10;;;;;;;20.73;58.01;100625.38;109356;1263;22002;-78
2022/08/04 01:15:22;;;;;;;9.80;8.80;;;;;;;20.75;57.88;100624.56;109047;1267;22167;-78
2022/08/04 01:18:26;;;;;;;9.80;8.80;;;;;;;20.74;57.78;100628.09;108700;1272;21975;-78
2022/08/04 01:21:28;;;;;;;10.40;9.30;;;;;;;20.70;57.72;100625.88;108558;1270;22777;-78
2022/08/04 01:24:58;;;;;;;11.80;10.20;;;;;;;20.64;57.97;100624.06;108741;1270;23094;-77
2022/08/04 01:28:01;;;;;;;9.60;8.50;;;;;;;20.57;58.50;100630.55;108804;1267;23096;-78
2022/08/04 01:30:32;;;;;;;13.40;10.60;;;;;;;20.54;58.88;100630.51;108711;1273;23096;-78
2022/08/04 01:33:12;;;;;;;11.50;10.30;;;;;;;20.54;59.02;100633.61;109111;1264;23700;-78
2022/08/04 01:35:55;;;;;;;10.30;9.30;;;;;;;20.52;59.03;100631.35;109651;1261;22278;-78
2022/08/04 01:38:41;;;;;;;13.50;11.10;;;;;;;20.50;59.25;100632.90;109336;1266;23136;-78
2022/08/04 01:41:18;;;;;;;11.40;10.20;;;;;;;20.48;59.37;100630.73;109183;1264;21974;-78
2022/08/04 01:44:01;;;;;;;11.30;10.40;;;;;;;20.44;59.46;100628.70;109177;1267;22074;-78
2022/08/04 01:46:35;;;;;;;12.10;10.00;;;;;;;20.41;59.73;100632.42;108887;1267;21985;-79
2022/08/04 01:49:06;;;;;;;11.90;10.20;;;;;;;20.38;59.89;100631.59;109257;1261;21934;-79
2022/08/04 01:51:38;;;;;;;12.00;10.80;;;;;;;20.32;60.02;100630.55;109809;1261;22110;-77
2022/08/04 01:54:09;;;;;;;12.40;10.10;;;;;;;20.27;60.30;100630.56;109390;1261;21986;-79
2022/08/04 01:56:56;;;;;;;13.00;9.70;;;;;;;20.25;60.57;100630.89;109814;1257;22656;-78
2022/08/04 02:00:02;;;;;;;12.90;11.10;;;;;;;20.20;60.95;100630.55;110284;1256;22742;-78
2022/08/04 02:02:40;;;;;;;14.80;11.50;;;;;;;20.17;61.09;100630.94;110233;1256;22251;-79
2022/08/04 02:05:18;;;;;;;12.10;11.00;;;;;;;20.17;61.30;100626.80;110215;1256;22034;-79
2022/08/04 02:08:44;;;;;;;14.60;11.90;;;;;;;20.14;61.25;100627.55;110038;1257;21946;-78
2022/08/04 02:11:24;;;;;;;17.80;12.10;;;;;;;20.07;61.37;100625.28;109917;1260;23206;-78
2022/08/04 02:14:44;;;;;;;11.80;10.70;;;;;;;20.03;61.46;100624.82;109962;1260;23550;-78
2022/08/04 02:17:45;;;;;;;;;;;;;;;;;;;;;
2022/08/04 02:21:05;;;;;;;15.10;11.90;;;;;;;19.92;61.45;100617.39;109172;1264;22064;-77
2022/08/04 02:24:32;;;;;;;13.80;11.60;;;;;;;19.84;61.75;100614.95;109166;1264;22948;-78
2022/08/04 02:27:30;;;;;;;14.70;13.30;;;;;;;19.79;61.92;100611.64;109190;1265;22776;-78
2022/08/04 02:31:14;;;;;;;13.40;12.20;;;;;;;19.77;62.05;100613.17;109069;1263;23613;-78
2022/08/04 02:34:31;;;;;;;15.10;13.50;;;;;;;19.74;62.16;100611.55;109352;1264;22397;-79
2022/08/04 02:37:26;;;;;;;;;;;;;;;;;;;;;
2022/08/04 02:40:25;;;;;;;14.90;13.40;;;;;;;19.60;61.92;100605.09;110068;1259;21980;-77
2022/08/04 02:43:08;;;;;;;13.70;12.50;;;;;;;19.55;62.07;100604.88;110029;1259;22907;-78
2022/08/04 02:46:02;;;;;;;16.30;14.50;;;;;;;19.58;62.34;100605.75;110394;1253;23030;-77
2022/08/04 02:48:56;;;;;;;14.30;12.70;;;;;;;19.61;62.43;100600.93;110405;1256;22985;-77
2022/08/04 02:51:35;;;;;;;14.20;12.80;;;;;;;19.66;62.39;100596.27;110263;1256;22886;-78
2022/08/04 02:54:12;;;;;;;17.40;13.40;;;;;;;19.70;62.34;100599.09;110373;1256;23718;-78
2022/08/04 02:57:34;;;;;;;13.60;12.20;;;;;;;19.71;62.32;100596.02;110277;1259;21974;-78
2022/08/04 03:01:01;;;;;;;12.60;11.40;;;;;;;19.70;62.55;100598.89;110115;1259;21973;-78
2022/08/04 03:04:36;;;;;;;16.50;13.20;;;;;;;19.72;62.60;100595.04;109755;1260;22438;-78
2022/08/04 03:08:29;;;;;;;15.30;13.80;;;;;;;19.72;62.74;100598.71;110298;1256;21958;-79
2022/08/04 03:11:59;;;;;;;;;;;;;;;;;;;;;
2022/08/04 03:15:43;;;;;;;14.20;13.00;;;;;;;19.71;62.93;100602.55;110600;1253;24429;-78
2022/08/04 03:18:34;;;;;;;16.00;13.30;;;;;;;19.73;63.04;100602.45;110717;1253;22679;-78
2022/08/04 03:21:45;;;;;;;16.80;14.10;;;;;;;19.72;62.91;100602.33;110320;1257;23576;-77
2022/08/04 03:24:42;;;;;;;16.20;14.60;;;;;;;19.70;62.86;100604.80;110279;1256;23755;-77
2022/08/04 03:27:27;;;;;;;16.80;14.60;;;;;;;19.67;62.83;100608.07;109598;1262;23045;-78
2022/08/04 03:30:54;;;;;;;14.90;13.40;;;;;;;19.67;63.03;100605.60;109788;1262;23884;-78
2022/08/04 03:33:36;;;;;;;15.40;13.00;;;;;;;19.65;63.04;100606.85;108867;1270;21989;-77
2022/08/04 03:36:33;;;;;;;;;;;;;;;19.64;63.05;100605.31;109007;1269;21960;-78
2022/08/04 03:39:47;;;;;;;14.90;13.40;;;;;;;19.52;63.00;100609.02;108513;1273;22080;-77
2022/08/04 03:42:38;;;;;;;17.20;14.60;;;;;;;19.47;63.18;100610.04;108839;1270;23055;-77
2022/08/04 03:45:37;;;;;;;15.30;13.80;;;;;;;19.46;63.13;100608.65;108764;1269;23005;-77
2022/08/04 03:48:42;;;;;;;17.00;13.40;;;;;;;19.45;63.16;100613.45;108794;1270;22137;-78
2022/08/04 03:54:51;;;;;;;15.60;13.90;;;;;;;19.41;63.36;100615.05;108784;1270;21989;-76
2022/08/04 03:58:08;;;;;;;14.60;13.10;;;;;;;19.36;63.37;100614.34;108989;1267;24382;-77
2022/08/04 04:01:06;;;;;;;15.10;13.50;;;;;;;19.37;63.76;100612.50;108998;1267;22030;-76
2022/08/04 04:04:28;;;;;;;15.50;14.00;;;;;;;19.41;63.99;100610.47;109414;1260;21975;-75
2022/08/04 04:07:43;;;;;;;15.70;14.10;;;;;;;19.44;63.96;100612.09;110576;1253;21976;-81
2022/08/04 04:10:51;;;;;;;15.20;13.80;;;;;;;19.44;63.86;100612.48;110683;1253;21962;-76
2022/08/04 04:14:00;;;;;;;15.20;13.60;;;;;;;19.45;63.85;100613.79;110686;1252;23591;-78
2022/08/04 04:17:07;;;;;;;15.80;14.20;;;;;;;19.49;64.09;100611.98;110071;1257;22332;-77
2022/08/04 04:19:45;;;;;;;17.10;15.10;;;;;;;19.55;64.02;100611.41;109316;1264;22001;-77
2022/08/04 04:22:51;;;;;;;16.90;15.20;;;;;;;19.63;63.91;100615.00;109757;1262;21984;-77
2022/08/04 04:25:44;;;;;;;16.00;14.40;;;;;;;19.67;63.71;100616.73;109269;1263;22043;-77
2022/08/04 04:28:34;;;;;;;15.20;13.80;;;;;;;19.68;63.70;100621.13;109419;1264;23145;-77
2022/08/04 04:31:34;;;;;;;17.00;14.50;;;;;;;19.74;63.74;100629.66;109407;1263;23754;-78
2022/08/04 04:34:42;;;;;;;19.20;15.20;;;;;;;19.78;63.60;100625.45;109437;1263;21985;-77
2022/08/04 04:37:43;;;;;;;17.50;15.70;;;;;;;19.83;63.52;100626.23;109126;1263;21989;-78
2022/08/04 04:40:54;;;;;;;16.60;15.20;;;;;;;19.87;63.44;100626.36;109580;1264;21981;-77
2022/08/04 04:44:02;;;;;;;17.20;15.70;;;;;;;19.91;63.37;100625.89;109689;1263;23725;-77
2022/08/04 04:47:16;;;;;;;17.20;15.60;;;;;;;19.97;63.30;100628.27;109207;1267;22938;-76
2022/08/04 04:50:19;;;;;;;16.80;15.20;;;;;;;20.04;63.08;100625.89;109127;1267;21987;-76
2022/08/04 04:53:34;;;;;;;17.70;16.00;;;;;;;20.12;62.89;100626.45;109171;1264;22481;-77
2022/08/04 04:56:34;;;;;;;17.70;16.00;;;;;;;20.22;62.86;100627.86;109735;1258;23083;-77
2022/08/04 04:59:14;;;;;;;16.40;15.00;;;;;;;20.33;62.67;100627.40;110018;1258;23617;-78
2022/08/04 05:01:50;;;;;;;16.40;15.00;;;;;;;20.41;62.50;100623.30;110094;1256;21988;-78
2022/08/04 05:04:57;;;;;;;16.60;15.00;;;;;;;20.53;62.13;100626.92;110234;1256;23034;-76
2022/08/04 05:08:17;;;;;;;14.80;13.60;;;;;;;20.65;62.01;100631.40;110293;1256;21957;-79
2022/08/04 05:11:48;;;;;;;15.40;14.00;;;;;;;20.79;61.85;100628.27;110512;1250;22032;-79
2022/08/04 05:14:32;;;;;;;16.70;13.90;;;;;;;20.94;61.65;100628.09;110784;1250;22982;-77
2022/08/04 05:17:30;;;;;;;16.00;14.40;;;;;;;21.11;61.22;100629.30;110772;1250;23567;-77
2022/08/04 05:20:05;;;;;;;15.60;13.90;;;;;;;21.30;61.10;100630.11;110029;1259;23589;-77
2022/08/04 05:22:55;;;;;;;15.10;13.60;;;;;;;21.48;60.68;100628.13;109705;1259;22746;-81
2022/08/04 05:25:36;;;;;;;15.10;13.70;;;;;;;21.68;60.28;100630.59;109654;1259;22007;-78
2022/08/04 05:28:17;;;;;;;15.10;13.20;;;;;;;21.92;59.90;100635.64;109911;1260;21978;-76
2022/08/04 05:31:10;;;;;;;13.70;12.50;;;;;;;22.19;59.53;100635.48;109812;1261;21959;-75
2022/08/04 05:33:53;;;;;;;13.60;12.40;;;;;;;22.46;58.95;100636.19;109614;1260;21990;-76
2022/08/04 05:36:36;;;;;;;17.80;15.10;;;;;;;22.69;58.26;100637.17;109559;1261;21972;-79
2022/08/04 05:39:17;;;;;;;14.50;12.00;;;;;;;22.96;57.67;100636.59;109560;1261;22046;-78
2022/08/04 05:41:49;;;;;;;14.70;13.30;;;;;;;23.23;57.08;100638.08;109436;1261;22091;-79
2022/08/04 05:44:26;;;;;;;13.70;12.30;;;;;;;23.51;56.45;100635.77;109739;1253;23590;-79
2022/08/04 05:46:58;;;;;;;13.20;12.10;;;;;;;23.77;55.61;100636.08;109602;1258;22117;-79
2022/08/04 05:49:29;;;;;;;13.60;12.20;;;;;;;24.00;54.92;100640.77;109958;1259;21983;-79
2022/08/04 05:52:05;;;;;;;13.20;12.10;;;;;;;24.23;54.47;100643.81;110136;1260;23580;-77
2022/08/04 05:54:36;;;;;;;14.50;13.00;;;;;;;24.48;54.04;100639.81;110009;1259;21966;-77
2022/08/04 05:57:07;;;;;;;14.40;13.00;;;;;;;24.72;53.17;100646.02;109981;1261;22285;-76
2022/08/04 05:59:41;;;;;;;14.70;13.50;;;;;;;24.96;52.49;100643.73;109858;1260;21969;-79
2022/08/04 06:02:16;;;;;;;15.40;13.90;;;;;;;25.27;52.41;100645.15;109957;1260;21973;-78
2022/08/04 06:04:51;;;;;;;14.20;12.90;;;;;;;25.64;51.85;100650.89;110009;1258;23580;-76
2022/08/04 06:07:20;;;;;;;14.00;12.60;;;;;;;25.98;50.62;100651.66;109888;1258;21964;-76
2022/08/04 06:09:50;;;;;;;13.60;12.00;;;;;;;26.27;49.67;100646.48;109683;1259;22134;-76
2022/08/04 06:12:36;;;;;;;13.20;11.90;;;;;;;26.58;49.14;100647.48;110285;1253;22069;-75
2022/08/04 06:15:09;;;;;;;12.10;10.90;;;;;;;26.91;48.20;100647.82;110390;1253;22397;-84
2022/08/04 06:17:47;;;;;;;12.90;11.30;;;;;;;27.20;47.48;100647.31;110759;1253;21958;-78
2022/08/04 06:20:41;;;;;;;13.40;11.50;;;;;;;27.57;46.89;100653.05;110685;1252;22040;-78
2022/08/04 06:23:19;;;;;;;15.30;11.20;;;;;;;27.83;46.35;100656.28;110542;1253;23690;-75
2022/08/04 06:25:56;;;;;;;12.40;11.10;;;;;;;28.01;45.15;100657.98;110380;1253;21982;-78
2022/08/04 06:28:27;;;;;;;11.70;10.00;;;;;;;28.13;44.66;100658.09;109859;1259;21991;-78
2022/08/04 06:31:02;;;;;;;13.50;12.20;;;;;;;28.33;44.54;100657.00;110177;1259;24424;-77
2022/08/04 06:33:51;;;;;;;11.70;10.70;;;;;;;28.63;44.36;100656.92;110061;1259;21966;-77
2022/08/04 06:36:24;;;;;;;12.80;10.70;;;;;;;28.81;43.20;100658.86;110174;1258;22174;-77
2022/08/04 06:38:54;;;;;;;9.90;9.10;;;;;;;28.95;42.81;100656.70;110167;1259;21939;-78
2022/08/04 06:41:29;;;;;;;13.20;10.20;;;;;;;29.14;42.58;100663.00;109252;1264;22024;-77
2022/08/04 06:44:04;;;;;;;10.60;9.60;;;;;;;29.33;42.11;100667.15;109234;1265;22379;-78
2022/08/04 06:46:40;;;;;;;13.20;9.10;;;;;;;29.49;41.66;100665.64;109296;1264;23586;-78
2022/08/04 06:49:12;;;;;;;10.20;9.20;;;;;;;29.63;41.46;100665.49;108826;1270;22988;-78
2022/08/04 06:51:46;;;;;;;10.50;9.50;;;;;;;29.77;41.36;100665.83;108640;1273;22017;-77
2022/08/04 06:54:17;;;;;;;10.30;9.10;;;;;;;29.97;41.17;100666.11;108819;1270;21982;-77
2022/08/04 06:56:48;;;;;;;10.90;9.10;;;;;;;30.16;40.38;100666.55;108342;1276;22074;-77
2022/08/04 06:59:22;;;;;;;10.00;9.10;;;;;;;30.38;39.83;100664.66;108541;1271;22105;-77
2022/08/04 07:01:53;;;;;;;10.90;8.60;;;;;;;30.60;39.41;100666.20;108816;1270;24246;-78
2022/08/04 07:04:22;;;;;;;10.20;9.20;;;;;;;30.87;38.89;100667.98;108754;1270;22446;-77
2022/08/04 07:06:53;;;;;;;9.70;8.10;;;;;;;31.09;38.11;100669.77;108945;1264;21979;-78
2022/08/04 07:09:24;;;;;;;8.40;7.70;;;;;;;31.21;37.20;100669.02;109278;1258;21984;-77
2022/08/04 07:11:54;;;;;;;9.00;7.90;;;;;;;31.31;36.11;100667.79;109887;1259;21963;-77
2022/08/04 07:14:25;;;;;;;9.70;8.80;;;;;;;31.42;36.01;100663.19;109651;1259;21974;-80
2022/08/04 07:16:56;;;;;;;8.90;7.90;;;;;;;31.57;35.95;100665.20;109575;1264;23039;-77
2022/08/04 07:19:25;;;;;;;9.30;8.40;;;;;;;31.79;35.82;100663.54;109193;1267;23749;-76
2022/08/04 07:21:54;;;;;;;8.60;7.90;;;;;;;31.85;35.18;100664.30;108681;1273;21999;-77
2022/08/04 07:24:45;;;;;;;8.80;7.90;;;;;;;31.96;35.39;100665.14;108732;1273;23119;-77
2022/08/04 07:27:16;;;;;;;8.50;7.80;;;;;;;32.08;35.40;100664.31;108381;1276;22001;-77
2022/08/04 07:30:06;;;;;;;8.40;7.60;;;;;;;32.26;34.86;100666.61;108203;1276;23744;-77
2022/08/04 07:32:40;;;;;;;9.80;7.00;;;;;;;32.33;34.45;100669.42;108468;1273;21994;-79
2022/08/04 07:35:10;;;;;;;7.70;6.80;;;;;;;32.34;34.07;100669.99;108728;1269;22648;-78
2022/08/04 07:38:02;;;;;;;8.70;6.60;;;;;;;32.37;33.54;100667.45;109394;1264;21980;-78
2022/08/04 07:40:39;;;;;;;8.70;7.20;;;;;;;32.43;33.31;100670.22;109264;1264;22745;-78
2022/08/04 07:43:09;;;;;;;7.90;7.10;;;;;;;32.55;33.19;100666.73;109750;1262;21974;-78
2022/08/04 07:45:38;;;;;;;8.00;7.30;;;;;;;32.70;32.96;100661.37;109490;1262;23028;-78
2022/08/04 07:48:11;;;;;;;7.90;6.80;;;;;;;32.83;32.66;100661.55;109442;1261;23732;-77
2022/08/04 07:50:43;;;;;;;7.00;6.30;;;;;;;32.96;32.46;100661.23;109803;1262;22926;-77
2022/08/04 07:53:13;;;;;;;8.40;6.50;;;;;;;33.07;31.93;100661.28;110025;1260;21969;-78
2022/08/04 07:56:03;;;;;;;6.50;6.00;;;;;;;33.13;31.35;100663.59;109487;1262;22457;-77
2022/08/04 07:58:32;;;;;;;8.60;6.90;;;;;;;33.21;31.55;100662.63;108990;1264;21989;-77
2022/08/04 08:01:01;;;;;;;7.10;6.40;;;;;;;33.25;31.65;100661.11;109761;1262;21987;-76
2022/08/04 08:03:31;;;;;;;7.80;7.00;;;;;;;33.34;31.67;100659.06;109920;1262;21962;-78
2022/08/04 08:06:00;;;;;;;7.60;6.80;;;;;;;33.46;31.52;100659.21;109666;1262;21972;-78
2022/08/04 08:08:50;;;;;;;8.10;6.90;;;;;;;33.49;31.50;100656.27;109532;1262;21966;-77
2022/08/04 08:11:20;;;;;;;7.50;6.80;;;;;;;33.54;31.67;100656.44;109885;1256;23611;-77
2022/08/04 08:13:49;;;;;;;10.00;7.50;;;;;;;33.63;31.92;100653.95;110045;1259;21956;-79
2022/08/04 08:16:19;;;;;;;9.10;8.10;;;;;;;33.70;31.57;100651.02;110283;1250;21955;-78
2022/08/04 08:18:55;;;;;;;8.70;7.50;;;;;;;33.83;31.68;100647.72;110620;1250;22754;-78
2022/08/04 08:21:24;;;;;;;6.80;6.20;;;;;;;33.98;31.46;100647.46;110641;1250;23594;-78
2022/08/04 08:23:54;;;;;;;10.50;7.60;;;;;;;34.13;31.28;100646.22;110520;1253;23699;-78
2022/08/04 08:26:24;;;;;;;;;;;;;;;34.27;30.66;100647.06;109933;1261;22134;-79
2022/08/04 08:28:53;;;;;;;7.30;6.60;;;;;;;34.22;30.39;100646.02;109980;1258;22151;-78
2022/08/04 08:31:23;;;;;;;8.80;7.70;;;;;;;34.17;30.61;100644.62;109809;1259;21975;-78
2022/08/04 08:34:13;;;;;;;7.30;6.60;;;;;;;34.15;30.19;100645.55;110055;1259;22092;-79
2022/08/04 08:37:12;;;;;;;8.20;6.70;;;;;;;34.19;30.15;100645.83;109962;1259;21966;-82
2022/08/04 08:40:00;;;;;;;10.70;6.10;;;;;;;34.31;29.90;100650.47;110008;1260;23750;-78
2022/08/04 08:42:57;;;;;;;6.80;6.10;;;;;;;34.38;29.53;100650.41;109278;1264;23065;-82
2022/08/04 08:46:37;;;;;;;7.40;6.40;;;;;;;34.24;29.33;100652.20;110177;1256;23439;-80
2022/08/04 08:49:46;;;;;;;6.30;5.60;;;;;;;34.24;29.47;100653.02;110057;1262;23596;-79
2022/08/04 08:53:27;;;;;;;6.10;5.60;;;;;;;34.25;29.15;100652.98;110027;1261;23102;-80
2022/08/04 08:56:08;;;;;;;10.70;5.50;;;;;;;34.25;29.03;100655.67;109162;1268;21981;-79
2022/08/04 08:59:17;;;;;;;6.50;5.00;;;;;;;34.17;28.85;100653.55;109128;1267;23625;-80
2022/08/04 09:02:38;;;;;;;5.60;5.10;;;;;;;34.14;29.16;100650.81;109715;1264;21969;-80
2022/08/04 09:05:54;;;;;;;6.00;4.40;;;;;;;34.20;28.70;100648.15;109705;1264;23004;-81
2022/08/04 09:09:00;;;;;;;5.90;4.00;;;;;;;34.28;27.93;100653.58;109142;1270;21969;-80
2022/08/04 09:12:29;;;;;;;6.30;4.90;;;;;;;34.24;27.93;100648.41;109020;1270;21988;-80
2022/08/04 09:15:36;;;;;;;5.50;4.60;;;;;;;34.43;28.28;100645.34;108924;1270;22002;-80
2022/08/04 09:18:19;;;;;;;5.00;4.50;;;;;;;34.72;27.97;100646.02;108391;1279;22469;-80
2022/08/04 09:21:36;;;;;;;7.20;4.40;;;;;;;34.78;27.28;100645.58;108576;1275;22938;-81
2022/08/04 09:24:17;;;;;;;6.50;4.60;;;;;;;34.63;26.83;100644.41;108070;1281;21999;-80
2022/08/04 09:27:17;;;;;;;6.10;4.60;;;;;;;34.54;27.21;100642.84;108326;1281;22012;-80
2022/08/04 09:30:12;;;;;;;4.80;4.40;;;;;;;34.79;27.57;100640.38;108021;1281;23121;-81
2022/08/04 09:33:15;;;;;;;8.30;5.30;;;;;;;35.12;27.17;100642.69;108282;1275;22551;-81
2022/08/04 09:36:01;;;;;;;4.40;4.00;;;;;;;35.13;26.58;100641.21;108228;1280;22175;-80
2022/08/04 09:39:08;;;;;;;5.00;4.10;;;;;;;35.02;26.29;100635.59;108377;1281;22481;-80
2022/08/04 09:42:19;;;;;;;6.70;4.60;;;;;;;35.06;27.05;100632.97;108013;1282;22007;-80
2022/08/04 09:45:37;;;;;;;4.70;4.30;;;;;;;35.21;26.73;100630.68;107874;1276;22798;-79
2022/08/04 09:48:54;;;;;;;6.30;4.10;;;;;;;35.39;26.62;100629.42;108756;1264;22116;-79
2022/08/04 09:51:39;;;;;;;4.70;4.00;;;;;;;35.42;25.75;100625.39;108771;1276;23899;-80
2022/08/04 09:54:57;;;;;;;6.50;3.90;;;;;;;35.15;25.55;100621.43;108620;1276;22098;-79
2022/08/04 09:58:11;;;;;;;8.30;4.30;;;;;;;35.06;26.17;100621.81;108494;1279;22076;-79
2022/08/04 10:00:48;;;;;;;3.20;3.00;;;;;;;34.96;25.69;100621.27;108512;1273;22693;-80
2022/08/04 10:03:21;;;;;;;10.00;4.00;;;;;;;34.89;25.54;100621.84;108803;1270;21984;-81
2022/08/04 10:06:30;;;;;;;7.40;4.00;;;;;;;34.81;25.34;100620.56;108849;1270;22040;-80
2022/08/04 10:09:43;;;;;;;9.00;4.00;;;;;;;34.62;25.60;100616.30;108480;1276;22073;-80
2022/08/04 10:12:23;;;;;;;10.00;4.30;;;;;;;34.56;25.99;100617.39;108715;1276;23156;-80
2022/08/04 10:15:10;;;;;;;7.80;4.20;;;;;;;34.61;25.91;100613.02;108486;1276;23621;-81
2022/08/04 10:18:16;;;;;;;5.70;3.70;;;;;;;34.65;25.61;100610.27;109239;1270;21976;-78
2022/08/04 10:21:02;;;;;;;5.90;3.80;;;;;;;34.57;25.91;100607.23;108866;1270;23054;-80
2022/08/04 10:24:11;;;;;;;4.50;4.10;;;;;;;34.66;26.04;100605.13;108536;1273;21991;-79
2022/08/04 10:27:20;;;;;;;4.90;4.40;;;;;;;34.66;25.81;100603.25;108766;1273;22958;-81
2022/08/04 10:29:57;;;;;;;6.90;6.10;;;;;;;34.52;25.90;100600.44;109765;1264;23586;-81
2022/08/04 10:32:41;;;;;;;5.10;4.20;;;;;;;34.55;25.94;100601.65;109536;1263;22047;-80
2022/08/04 10:35:22;;;;;;;4.90;3.40;;;;;;;34.68;25.63;100603.80;110331;1260;23090;-80
2022/08/04 10:38:24;;;;;;;;;;;;;;;34.55;25.15;100604.86;109319;1267;21960;-80
2022/08/04 10:41:49;;;;;;;4.20;3.80;;;;;;;34.20;25.76;100606.15;109508;1266;22753;-79
2022/08/04 10:44:59;;;;;;;5.90;3.70;;;;;;;34.05;26.05;100599.70;109245;1266;24459;-79
2022/08/04 10:47:34;;;;;;;;;;;;;;;33.95;26.18;100598.98;109214;1262;21984;-79
2022/08/04 10:50:08;;;;;;;5.00;4.10;;;;;;;33.76;26.05;100589.27;110134;1260;21979;-79
2022/08/04 10:53:08;;;;;;;6.60;3.80;;;;;;;33.66;26.35;100589.07;109573;1264;22209;-79
2022/08/04 10:55:47;;;;;;;4.10;3.80;;;;;;;33.57;26.55;100583.77;109366;1259;23056;-80
2022/08/04 10:58:45;;;;;;;4.10;3.70;;;;;;;33.41;26.82;100584.05;110331;1257;23194;-78
2022/08/04 11:01:25;;;;;;;4.00;3.60;;;;;;;33.22;26.69;100587.77;109610;1261;22009;-79
2022/08/04 11:04:46;;;;;;;4.20;3.80;;;;;;;32.93;26.91;100580.33;109590;1263;22000;-77
2022/08/04 11:07:16;;;;;;;5.10;3.80;;;;;;;32.75;27.38;100578.58;109112;1268;23050;-79
2022/08/04 11:09:51;;;;;;;4.20;3.80;;;;;;;32.59;27.63;100573.11;108892;1269;22032;-80
2022/08/04 11:12:31;;;;;;;4.80;4.00;;;;;;;32.51;27.81;100571.16;109048;1269;22206;-79
2022/08/04 11:15:22;;;;;;;4.90;3.60;;;;;;;32.42;28.16;100573.50;108961;1268;23051;-79
2022/08/04 11:18:07;;;;;;;6.10;4.10;;;;;;;32.25;28.14;100574.19;109493;1264;21975;-79
2022/08/04 11:21:02;;;;;;;4.40;3.80;;;;;;;32.06;28.47;100569.41;109809;1260;21979;-79
2022/08/04 11:23:36;;;;;;;6.60;4.50;;;;;;;31.99;28.98;100569.53;109864;1259;21978;-78
2022/08/04 11:26:17;;;;;;;4.80;4.20;;;;;;;31.92;28.93;100569.45;109963;1259;23308;-80
2022/08/04 11:28:55;;;;;;;;;;;;;;;31.84;29.02;100570.30;110152;1258;21959;-80
2022/08/04 11:31:38;;;;;;;4.50;3.50;;;;;;;31.65;29.06;100569.16;110111;1259;23052;-78
2022/08/04 11:34:29;;;;;;;4.60;3.70;;;;;;;31.56;29.44;100568.63;110068;1259;21972;-77
2022/08/04 11:37:18;;;;;;;5.90;3.90;;;;;;;31.61;29.57;100565.52;109338;1265;23681;-76
2022/08/04 11:40:15;;;;;;;3.80;3.50;;;;;;;31.59;29.29;100562.06;109607;1265;23629;-82
2022/08/04 11:43:07;;;;;;;4.50;3.50;;;;;;;31.52;29.55;100563.40;109575;1265;22032;-77
2022/08/04 11:46:00;;;;;;;3.80;3.40;;;;;;;31.46;29.66;100558.38;109633;1260;22032;-76
2022/08/04 11:49:11;;;;;;;4.10;3.80;;;;;;;31.50;30.08;100555.31;109708;1263;21976;-75
2022/08/04 11:52:32;;;;;;;4.30;3.90;;;;;;;31.53;29.84;100551.74;108971;1270;22022;-80
2022/08/04 11:55:39;;;;;;;5.50;3.30;;;;;;;31.48;29.97;100554.09;108514;1276;23825;-76
2022/08/04 11:58:29;;;;;;;4.30;3.40;;;;;;;31.43;29.91;100547.96;108445;1276;23776;-75
2022/08/04 12:01:28;;;;;;;5.20;3.40;;;;;;;31.41;30.05;100549.20;108482;1276;21995;-75
2022/08/04 12:04:33;;;;;;;5.50;4.90;;;;;;;31.30;29.80;100544.76;108646;1276;22440;-76
2022/08/04 12:07:19;;;;;;;4.50;3.50;;;;;;;31.19;30.23;100543.21;108450;1276;22782;-75
2022/08/04 12:10:24;;;;;;;6.50;3.60;;;;;;;31.17;30.23;100541.87;108490;1276;22083;-76
2022/08/04 12:14:08;;;;;;;5.10;4.00;;;;;;;31.11;30.31;100539.18;108595;1274;22098;-76
2022/08/04 12:17:00;;;;;;;4.70;3.50;;;;;;;31.11;30.75;100537.66;109127;1266;23824;-75
2022/08/04 12:19:49;;;;;;;5.40;3.50;;;;;;;31.17;30.59;100537.39;108983;1267;23796;-76
2022/08/04 12:22:42;;;;;;;7.00;3.40;;;;;;;31.26;30.46;100538.15;108803;1272;22003;-77
2022/08/04 12:25:39;;;;;;;5.20;2.90;;;;;;;31.34;30.08;100537.00;108887;1265;21973;-76
2022/08/04 12:28:26;;;;;;;4.00;3.20;;;;;;;31.29;29.64;100534.17;109790;1256;21959;-76
2022/08/04 12:31:27;;;;;;;3.50;3.20;;;;;;;31.25;30.11;100536.75;110282;1257;22007;-78
2022/08/04 12:34:34;;;;;;;5.40;2.80;;;;;;;31.24;30.33;100534.64;110265;1259;23092;-76
2022/08/04 12:37:48;;;;;;;3.00;2.70;;;;;;;31.27;30.15;100534.59;109814;1262;22404;-76
2022/08/04 12:40:30;;;;;;;4.60;3.10;;;;;;;31.23;29.81;100533.63;109293;1267;23515;-75
2022/08/04 12:43:10;;;;;;;4.40;3.90;;;;;;;31.13;29.93;100533.86;108735;1270;23743;-76
2022/08/04 12:45:49;;;;;;;3.50;3.10;;;;;;;31.12;29.84;100526.35;108941;1270;23705;-76
2022/08/04 12:48:21;;;;;;;22.50;7.00;;;;;;;31.14;30.11;100522.55;108724;1273;21986;-76
2022/08/04 12:50:56;;;;;;;9.60;4.20;;;;;;;31.20;30.80;100525.40;108752;1273;22052;-76
2022/08/04 12:53:39;;;;;;;6.00;3.70;;;;;;;31.21;31.23;100524.77;108860;1271;21998;-76
2022/08/04 12:56:26;;;;;;;5.70;3.20;;;;;;;31.17;30.47;100523.38;109028;1268;21976;-78
2022/08/04 12:59:09;;;;;;;6.80;5.10;;;;;;;31.13;30.32;100519.19;108651;1273;22447;-78
2022/08/04 13:01:48;;;;;;;5.90;4.00;;;;;;;31.12;30.92;100519.91;108681;1270;23775;-76
2022/08/04 13:04:42;;;;;;;9.10;5.90;;;;;;;31.11;30.53;100515.30;109002;1268;21976;-78